Time;durP1;ratioP1;P1;durP2;ratioP2;P2;SDS_P1;SDS_P2;PMS_P1;PMS_P2;Temp;Humidity;BMP_temperature;BMP_pressure;BME280_temperature;BME280_humidity;BME280_pressure;Samples;Min_cycle;Max_cycle;Signal;HPM_P1;HPM_P2
2023/09/10 00:00:35;;;;;;;3.00;1.10;;;;;;;8.92;100.00;100959.16;104740;1261;60517;-50
2023/09/10 00:03:03;;;;;;;1.20;0.70;;;;;;;8.90;100.00;100958.14;104648;1261;60853;-52
2023/09/10 00:05:31;;;;;;;1.00;0.80;;;;;;;8.88;100.00;100960.34;104652;1259;71617;-51
2023/09/10 00:08:00;;;;;;;1.30;0.80;;;;;;;8.86;100.00;100961.08;104607;1256;65519;-51
2023/09/10 00:10:28;;;;;;;3.70;0.70;;;;;;;8.85;100.00;100961.64;104831;1256;72756;-52
2023/09/10 00:12:56;;;;;;;2.20;0.70;;;;;;;8.87;100.00;100966.80;104579;1257;59838;-51
2023/09/10 00:15:23;;;;;;;1.40;0.80;;;;;;;8.88;100.00;100968.55;104609;1259;60104;-51
2023/09/10 00:17:52;;;;;;;2.00;0.80;;;;;;;8.89;100.00;100968.01;104504;1259;71861;-52
2023/09/10 00:20:19;;;;;;;2.00;1.20;;;;;;;8.87;100.00;100969.29;104476;1260;69498;-50
2023/09/10 00:22:47;;;;;;;4.20;1.00;;;;;;;8.83;100.00;100973.15;104514;1258;70832;-51
2023/09/10 00:25:15;;;;;;;2.30;1.00;;;;;;;8.77;100.00;100973.81;105670;1261;60062;-51
2023/09/10 00:27:43;;;;;;;4.00;1.00;;;;;;;8.74;100.00;100973.70;104598;1260;59679;-52
2023/09/10 00:30:11;;;;;;;4.80;1.10;;;;;;;8.72;100.00;100975.52;104505;1257;73102;-51
2023/09/10 00:32:38;;;;;;;2.70;1.00;;;;;;;8.71;100.00;100980.92;108763;1259;66026;-51
2023/09/10 00:35:08;;;;;;;4.90;1.00;;;;;;;8.70;100.00;100979.50;108790;1257;72428;-49
2023/09/10 00:37:36;;;;;;;3.40;1.40;;;;;;;8.67;100.00;100977.61;108739;1255;58937;-49
2023/09/10 00:40:05;;;;;;;4.80;2.00;;;;;;;8.63;100.00;100978.58;108764;1256;58810;-49
2023/09/10 00:42:32;;;;;;;4.20;1.10;;;;;;;8.60;100.00;100976.50;108834;1255;73443;-50
2023/09/10 00:45:00;;;;;;;3.00;1.10;;;;;;;8.53;100.00;100979.52;108878;1261;66904;-49
2023/09/10 00:47:27;;;;;;;2.90;0.80;;;;;;;8.43;100.00;100979.89;108658;1255;72988;-52
2023/09/10 00:49:55;;;;;;;1.70;0.90;;;;;;;8.38;100.00;100983.40;108649;1259;62896;-49
2023/09/10 00:52:22;;;;;;;1.80;0.80;;;;;;;8.39;100.00;100983.92;108617;1257;60134;-49
2023/09/10 00:54:50;;;;;;;1.30;1.00;;;;;;;8.43;100.00;100985.64;108874;1257;73782;-52
2023/09/10 00:57:17;;;;;;;2.90;0.90;;;;;;;8.47;100.00;100983.94;108782;1255;66439;-51
2023/09/10 00:59:44;;;;;;;2.60;1.00;;;;;;;8.52;100.00;100985.08;108844;1257;71419;-49
2023/09/10 01:02:14;;;;;;;1.70;1.10;;;;;;;8.54;100.00;100979.84;108639;1262;60077;-50
2023/09/10 01:04:41;;;;;;;3.00;1.10;;;;;;;8.55;100.00;100984.11;108730;1255;58728;-48
2023/09/10 01:07:09;;;;;;;1.20;0.90;;;;;;;8.56;100.00;100980.17;108837;1257;72603;-49
2023/09/10 01:09:36;;;;;;;2.60;0.90;;;;;;;8.56;100.00;100979.45;108880;1255;66493;-49
2023/09/10 01:12:26;;;;;;;2.40;1.00;;;;;;;8.52;100.00;100986.34;108870;1259;70884;-49
2023/09/10 01:15:14;;;;;;;3.20;1.20;;;;;;;8.44;100.00;100982.20;105649;1263;60779;-51
2023/09/10 01:17:49;;;;;;;1.40;1.00;;;;;;;8.33;100.00;100983.66;104970;1259;60508;-49
2023/09/10 01:20:30;;;;;;;1.80;1.20;;;;;;;8.19;100.00;100983.02;105762;1255;72555;-50
2023/09/10 01:23:10;;;;;;;2.90;0.80;;;;;;;8.02;100.00;100980.84;104398;1255;68189;-48
2023/09/10 01:25:37;;;;;;;1.50;1.00;;;;;;;7.96;100.00;100982.02;108668;1257;71402;-50
2023/09/10 01:28:04;;;;;;;2.00;0.90;;;;;;;7.91;100.00;100983.55;105401;1256;60575;-51
2023/09/10 01:30:32;;;;;;;2.40;0.90;;;;;;;7.87;100.00;100985.59;104881;1258;59964;-51
2023/09/10 01:33:07;;;;;;;3.60;0.80;;;;;;;7.81;100.00;100987.30;104563;1261;73895;-50
2023/09/10 01:35:40;;;;;;;2.40;0.90;;;;;;;7.79;100.00;100985.54;105053;1256;65485;-51
2023/09/10 01:38:10;;;;;;;1.30;0.80;;;;;;;7.81;100.00;100984.44;104939;1259;71481;-50
2023/09/10 01:40:44;;;;;;;2.00;1.00;;;;;;;7.85;100.00;100980.07;105448;1258;62009;-51
2023/09/10 01:43:11;;;;;;;1.80;0.90;;;;;;;7.89;100.00;100979.12;105166;1261;60538;-49
2023/09/10 01:45:39;;;;;;;4.00;0.90;;;;;;;7.92;100.00;100982.98;104815;1259;72141;-48
2023/09/10 01:48:06;;;;;;;1.70;1.00;;;;;;;7.89;100.00;100983.39;104643;1258;65618;-49
2023/09/10 01:50:34;;;;;;;1.50;0.90;;;;;;;7.81;100.00;100984.62;104598;1257;71397;-51
2023/09/10 01:53:02;;;;;;;2.20;1.60;;;;;;;7.76;100.00;100985.59;104656;1259;60583;-50
2023/09/10 01:55:31;;;;;;;2.00;1.00;;;;;;;7.74;100.00;100991.34;104937;1258;60496;-49
2023/09/10 01:57:58;;;;;;;4.20;1.10;;;;;;;7.74;100.00;100987.60;104409;1257;72590;-51
2023/09/10 02:00:26;;;;;;;2.50;0.80;;;;;;;7.73;100.00;100987.79;105887;1256;66387;-48
2023/09/10 02:02:53;;;;;;;1.40;0.90;;;;;;;7.75;100.00;100990.63;104771;1259;71462;-50
2023/09/10 02:05:21;;;;;;;2.00;0.80;;;;;;;7.73;100.00;100989.77;104667;1261;62084;-49
2023/09/10 02:07:49;;;;;;;4.20;0.60;;;;;;;7.70;100.00;100987.48;104444;1260;60606;-50
2023/09/10 02:10:16;;;;;;;1.40;0.70;;;;;;;7.70;100.00;100989.64;104601;1256;72897;-49
2023/09/10 02:12:44;;;;;;;1.80;0.90;;;;;;;7.71;100.00;100989.09;104758;1261;67578;-49
2023/09/10 02:15:11;;;;;;;2.30;0.90;;;;;;;7.74;100.00;100989.04;104818;1256;75100;-50
2023/09/10 02:17:39;;;;;;;2.60;1.00;;;;;;;7.73;100.00;100986.71;104564;1261;60468;-49
2023/09/10 02:20:10;;;;;;;2.00;1.10;;;;;;;7.71;100.00;100990.52;104736;1257;60578;-51
2023/09/10 02:22:38;;;;;;;1.90;1.00;;;;;;;7.70;100.00;100988.73;104810;1261;73951;-48
2023/09/10 02:25:06;;;;;;;1.90;0.90;;;;;;;7.69;100.00;100990.89;104895;1261;65813;-51
2023/09/10 02:27:34;;;;;;;2.00;0.80;;;;;;;7.69;100.00;100992.33;104583;1261;71077;-50
2023/09/10 02:30:05;;;;;;;3.40;0.90;;;;;;;7.68;100.00;100988.58;104723;1257;60529;-49
2023/09/10 02:32:34;;;;;;;2.20;0.90;;;;;;;7.69;100.00;100990.00;108641;1257;58920;-51
2023/09/10 02:35:01;;;;;;;1.90;1.00;;;;;;;7.67;100.00;100988.95;107113;1259;74043;-49
2023/09/10 02:37:30;;;;;;;1.10;0.70;;;;;;;7.67;100.00;100986.63;105615;1260;67871;-49
2023/09/10 02:39:57;;;;;;;3.70;0.70;;;;;;;7.66;100.00;100985.58;104159;1262;72657;-49
2023/09/10 02:42:25;;;;;;;1.10;0.70;;;;;;;7.67;100.00;100986.45;104515;1261;62261;-49
2023/09/10 02:44:52;;;;;;;3.60;1.00;;;;;;;7.69;100.00;100988.76;104454;1256;61749;-50
2023/09/10 02:47:20;;;;;;;2.80;0.70;;;;;;;7.69;100.00;100989.63;104610;1257;72709;-49
2023/09/10 02:49:47;;;;;;;1.10;0.60;;;;;;;7.70;100.00;100990.35;104609;1258;66804;-50
2023/09/10 02:52:14;;;;;;;2.40;0.70;;;;;;;7.71;100.00;100991.58;104533;1264;72019;-49
2023/09/10 02:54:42;;;;;;;4.10;0.90;;;;;;;7.72;100.00;100993.53;104589;1261;60566;-50
2023/09/10 02:57:09;;;;;;;1.30;0.70;;;;;;;7.69;100.00;100993.02;104694;1261;60526;-49
2023/09/10 02:59:36;;;;;;;2.50;0.90;;;;;;;7.66;100.00;100992.74;104661;1256;73992;-49
2023/09/10 03:02:04;;;;;;;2.30;0.80;;;;;;;7.59;100.00;100989.80;104552;1257;66887;-51
2023/09/10 03:04:31;;;;;;;1.70;0.80;;;;;;;7.54;100.00;100987.22;105366;1261;72846;-49
2023/09/10 03:07:01;;;;;;;2.90;0.90;;;;;;;7.50;100.00;100990.85;104454;1259;60584;-52
2023/09/10 03:09:28;;;;;;;2.30;0.90;;;;;;;7.44;100.00;100988.44;108770;1257;58768;-52
2023/09/10 03:12:23;;;;;;;1.90;0.80;;;;;;;7.39;100.00;100993.17;108698;1255;71476;-50
2023/09/10 03:14:51;;;;;;;1.30;0.60;;;;;;;7.38;100.00;100995.17;104453;1263;65863;-50
2023/09/10 03:17:19;;;;;;;1.60;0.80;;;;;;;7.37;100.00;100993.56;104409;1255;73107;-49
2023/09/10 03:19:47;;;;;;;1.30;0.70;;;;;;;7.36;100.00;100994.29;105294;1255;61681;-51
2023/09/10 03:22:15;;;;;;;1.10;0.70;;;;;;;7.27;100.00;101002.45;105811;1258;60418;-50
2023/09/10 03:24:42;;;;;;;1.40;0.60;;;;;;;7.18;100.00;100998.84;104677;1265;73899;-49
2023/09/10 03:27:10;;;;;;;3.00;0.90;;;;;;;7.12;100.00;101002.15;104572;1261;66908;-49
2023/09/10 03:29:37;;;;;;;2.50;0.80;;;;;;;7.05;100.00;101001.72;104751;1260;71467;-50
2023/09/10 03:32:08;;;;;;;2.20;0.80;;;;;;;7.04;100.00;100999.42;108702;1260;60569;-50
2023/09/10 03:34:36;;;;;;;0.90;0.70;;;;;;;7.06;100.00;101000.79;108853;1255;62279;-50
2023/09/10 03:37:03;;;;;;;1.40;0.90;;;;;;;7.10;100.00;101000.39;108885;1256;73766;-50
2023/09/10 03:39:30;;;;;;;1.30;0.80;;;;;;;7.14;100.00;101002.28;108869;1255;68566;-50
2023/09/10 03:41:58;;;;;;;1.70;0.80;;;;;;;7.16;100.00;101005.83;105050;1261;72692;-52
2023/09/10 03:44:26;;;;;;;1.70;1.00;;;;;;;7.12;100.00;101003.59;108891;1256;58835;-51
2023/09/10 03:46:53;;;;;;;1.70;0.90;;;;;;;7.07;100.00;101006.33;108879;1255;60304;-50
2023/09/10 03:49:21;;;;;;;1.70;0.90;;;;;;;7.04;100.00;101010.84;108815;1255;74710;-51
2023/09/10 03:51:49;;;;;;;2.30;0.80;;;;;;;7.00;100.00;101009.98;108813;1255;65658;-51
2023/09/10 03:54:16;;;;;;;1.10;0.70;;;;;;;6.99;100.00;101011.60;108854;1255;72474;-49
2023/09/10 03:56:44;;;;;;;1.80;0.80;;;;;;;7.03;100.00;101015.85;108806;1256;59660;-50
2023/09/10 03:59:11;;;;;;;1.90;0.80;;;;;;;7.08;100.00;101011.11;108958;1255;59231;-51
2023/09/10 04:01:39;;;;;;;1.10;0.70;;;;;;;7.15;100.00;101010.67;108871;1256;72597;-49
2023/09/10 04:04:06;;;;;;;1.10;0.80;;;;;;;7.24;100.00;101009.11;106942;1261;67321;-49
2023/09/10 04:06:34;;;;;;;1.60;0.70;;;;;;;7.33;100.00;101013.98;104938;1260;72697;-49
2023/09/10 04:09:03;;;;;;;1.90;0.70;;;;;;;7.42;100.00;101009.90;107599;1256;61647;-49
2023/09/10 04:11:30;;;;;;;2.30;0.70;;;;;;;7.51;100.00;101010.49;105238;1257;60530;-49
2023/09/10 04:13:58;;;;;;;0.70;0.60;;;;;;;7.56;100.00;101006.65;105065;1260;72587;-50
2023/09/10 04:16:26;;;;;;;2.50;0.80;;;;;;;7.62;100.00;101012.10;106940;1260;66334;-48
2023/09/10 04:18:54;;;;;;;1.40;0.90;;;;;;;7.68;100.00;101013.77;104798;1256;71062;-48
2023/09/10 04:21:21;;;;;;;4.40;1.00;;;;;;;7.76;100.00;101014.55;104845;1261;60763;-50
2023/09/10 04:23:48;;;;;;;1.80;0.80;;;;;;;7.81;100.00;101015.52;105011;1260;60475;-49
2023/09/10 04:26:16;;;;;;;1.60;0.90;;;;;;;7.87;100.00;101016.67;104963;1255;73902;-50
2023/09/10 04:28:44;;;;;;;3.30;1.00;;;;;;;7.89;100.00;101016.65;105019;1255;68074;-51
2023/09/10 04:31:13;;;;;;;1.20;0.60;;;;;;;7.92;100.00;101015.52;104898;1256;70894;-49
2023/09/10 04:33:40;;;;;;;3.10;0.80;;;;;;;8.04;100.00;101014.41;104894;1257;62279;-49
2023/09/10 04:36:08;;;;;;;3.30;0.80;;;;;;;8.23;100.00;101013.71;104971;1261;60442;-49
2023/09/10 04:38:36;;;;;;;1.90;1.00;;;;;;;8.52;100.00;101017.83;104819;1261;74061;-50
2023/09/10 04:41:04;;;;;;;3.80;0.80;;;;;;;8.90;100.00;101013.10;104913;1262;66384;-49
2023/09/10 04:43:31;;;;;;;1.50;0.80;;;;;;;9.31;100.00;101007.33;104843;1259;71434;-51
2023/09/10 04:45:59;;;;;;;2.80;0.80;;;;;;;9.64;100.00;101004.39;105416;1261;61723;-51
2023/09/10 04:48:27;;;;;;;1.40;0.70;;;;;;;9.85;100.00;101006.17;104920;1256;60885;-50
2023/09/10 04:50:54;;;;;;;1.40;0.80;;;;;;;9.97;100.00;101007.16;104851;1261;73887;-51
2023/09/10 04:53:22;;;;;;;4.10;1.00;;;;;;;10.04;100.00;101004.45;104647;1261;65652;-49
2023/09/10 04:55:53;;;;;;;2.20;0.80;;;;;;;10.10;100.00;101006.27;105125;1258;71419;-50
2023/09/10 04:58:23;;;;;;;1.70;0.90;;;;;;;10.16;100.00;101004.84;105222;1260;60567;-50
2023/09/10 05:00:51;;;;;;;1.00;0.70;;;;;;;10.21;100.00;101005.27;104848;1261;60440;-51
2023/09/10 05:03:20;;;;;;;2.20;1.00;;;;;;;10.26;100.00;101004.24;104757;1259;73120;-52
2023/09/10 05:05:56;;;;;;;2.60;1.00;;;;;;;10.31;100.00;101004.45;105239;1262;66746;-48
2023/09/10 05:08:23;;;;;;;1.30;0.90;;;;;;;10.38;100.00;101003.56;104730;1262;72665;-50
2023/09/10 05:10:51;;;;;;;1.40;0.80;;;;;;;10.45;100.00;101004.08;104815;1255;62197;-50
2023/09/10 05:13:18;;;;;;;1.10;0.70;;;;;;;10.54;100.00;101003.28;105150;1255;60541;-48
2023/09/10 05:15:49;;;;;;;1.00;0.70;;;;;;;10.64;100.00;101005.15;104925;1260;73090;-49
2023/09/10 05:18:16;;;;;;;2.30;0.80;;;;;;;10.78;100.00;101014.45;105104;1260;65513;-51
2023/09/10 05:20:44;;;;;;;1.70;0.90;;;;;;;10.92;100.00;101011.52;105152;1262;72608;-52
2023/09/10 05:23:11;;;;;;;2.00;1.10;;;;;;;11.06;100.00;101010.17;104951;1261;60664;-51
2023/09/10 05:25:39;;;;;;;1.80;1.00;;;;;;;11.22;100.00;101008.61;104833;1263;60504;-49
2023/09/10 05:28:06;;;;;;;2.90;1.10;;;;;;;11.39;100.00;101008.62;104905;1269;73828;-50
2023/09/10 05:30:37;;;;;;;3.50;1.40;;;;;;;11.57;100.00;101004.28;104821;1262;66838;-52
2023/09/10 05:33:04;;;;;;;5.40;1.40;;;;;;;11.74;100.00;101006.59;104877;1261;72459;-50
2023/09/10 05:35:32;;;;;;;2.60;1.70;;;;;;;11.92;100.00;101006.73;105792;1257;60547;-50
2023/09/10 05:38:00;;;;;;;4.80;3.00;;;;;;;12.10;100.00;101003.40;104727;1256;60469;-50
2023/09/10 05:40:27;;;;;;;5.00;3.80;;;;;;;12.30;100.00;101006.09;104823;1261;72611;-51
2023/09/10 05:42:55;;;;;;;5.70;3.20;;;;;;;12.51;100.00;101006.08;104907;1261;66787;-51
2023/09/10 05:45:22;;;;;;;3.80;2.30;;;;;;;12.68;100.00;101005.64;104877;1261;71924;-51
2023/09/10 05:47:50;;;;;;;3.70;2.10;;;;;;;12.82;100.00;101004.38;104716;1261;60705;-50
2023/09/10 05:50:17;;;;;;;2.40;0.90;;;;;;;12.95;100.00;101006.24;104892;1261;60677;-49
2023/09/10 05:52:45;;;;;;;3.20;1.10;;;;;;;13.06;100.00;101007.62;105065;1261;72920;-50
2023/09/10 05:55:13;;;;;;;4.30;1.00;;;;;;;13.17;100.00;101010.27;104703;1264;66795;-51
2023/09/10 05:57:40;;;;;;;1.60;1.10;;;;;;;13.26;100.00;101012.24;104619;1263;74428;-50
2023/09/10 06:00:08;;;;;;;2.00;1.00;;;;;;;13.36;100.00;101012.60;104809;1261;60586;-49
2023/09/10 06:02:41;;;;;;;1.60;0.70;;;;;;;13.45;100.00;101013.29;105245;1258;60893;-50
2023/09/10 06:05:10;;;;;;;2.80;0.60;;;;;;;13.55;100.00;101011.98;107272;1261;74403;-51
2023/09/10 06:07:38;;;;;;;2.00;0.80;;;;;;;13.64;100.00;101011.98;105049;1263;69524;-52
2023/09/10 06:10:08;;;;;;;4.40;0.90;;;;;;;13.74;100.00;101015.17;104902;1261;76067;-50
2023/09/10 06:12:39;;;;;;;5.20;0.80;;;;;;;13.84;100.00;101013.51;105198;1261;60325;-50
2023/09/10 06:15:07;;;;;;;1.00;0.60;;;;;;;13.93;100.00;101018.54;104937;1259;59209;-52
2023/09/10 06:17:35;;;;;;;0.70;0.50;;;;;;;14.01;100.00;101018.73;104917;1262;73947;-51
2023/09/10 06:20:03;;;;;;;2.50;0.50;;;;;;;14.11;100.00;101023.19;105721;1260;67131;-50
2023/09/10 06:22:31;;;;;;;0.70;0.50;;;;;;;14.19;100.00;101019.77;106246;1261;71449;-48
2023/09/10 06:24:59;;;;;;;1.00;0.50;;;;;;;14.26;100.00;101021.81;104545;1261;60458;-50
2023/09/10 06:27:26;;;;;;;0.90;0.40;;;;;;;14.34;100.00;101024.33;104616;1256;60498;-48
2023/09/10 06:29:53;;;;;;;0.70;0.40;;;;;;;14.43;100.00;101023.98;104508;1266;72598;-48
2023/09/10 06:32:22;;;;;;;1.50;0.50;;;;;;;14.51;100.00;101020.39;104706;1264;65989;-50
2023/09/10 06:34:49;;;;;;;1.30;0.70;;;;;;;14.58;100.00;101017.33;104682;1262;70472;-50
2023/09/10 06:37:17;;;;;;;0.70;0.40;;;;;;;14.65;100.00;101020.44;104562;1265;60555;-50
2023/09/10 06:39:44;;;;;;;0.60;0.40;;;;;;;14.72;100.00;101018.33;104629;1256;60290;-51
2023/09/10 06:42:13;;;;;;;0.50;0.40;;;;;;;14.80;100.00;101020.33;104715;1260;73847;-49
2023/09/10 06:44:43;;;;;;;1.40;0.50;;;;;;;14.87;100.00;101021.47;108773;1261;67035;-51
2023/09/10 06:47:11;;;;;;;2.60;0.50;;;;;;;14.93;100.00;101018.80;108818;1257;72547;-50
2023/09/10 06:49:38;;;;;;;1.10;0.50;;;;;;;15.01;100.00;101017.87;105660;1255;61748;-50
2023/09/10 06:52:13;;;;;;;3.70;0.40;;;;;;;15.10;100.00;101017.66;104617;1262;60565;-52
2023/09/10 06:54:40;;;;;;;0.40;0.30;;;;;;;15.19;100.00;101015.42;104808;1257;72725;-50
2023/09/10 06:57:08;;;;;;;0.50;0.40;;;;;;;15.27;100.00;101016.30;104825;1264;67700;-51
2023/09/10 06:59:36;;;;;;;2.60;0.40;;;;;;;15.33;100.00;101014.54;104900;1259;75349;-50
2023/09/10 07:02:04;;;;;;;3.00;0.40;;;;;;;15.39;100.00;101018.63;104905;1260;60780;-48
2023/09/10 07:04:32;;;;;;;0.80;0.50;;;;;;;15.44;100.00;101012.39;108362;1261;62294;-52
2023/09/10 07:06:59;;;;;;;2.50;0.50;;;;;;;15.48;100.00;101006.58;108851;1260;74357;-51
2023/09/10 07:09:27;;;;;;;1.00;0.50;;;;;;;15.53;100.00;101003.48;106112;1267;67388;-51
2023/09/10 07:11:55;;;;;;;1.80;0.50;;;;;;;15.57;100.00;101001.87;104833;1261;70883;-52
2023/09/10 07:14:23;;;;;;;1.40;0.50;;;;;;;15.61;100.00;101003.11;108743;1257;61775;-51
2023/09/10 07:16:51;;;;;;;2.20;0.50;;;;;;;15.66;100.00;101004.32;104893;1257;60558;-49
2023/09/10 07:19:19;;;;;;;4.80;0.50;;;;;;;15.72;100.00;101002.58;105571;1257;72406;-51
2023/09/10 07:21:47;;;;;;;3.30;0.70;;;;;;;15.79;100.00;101004.73;105037;1263;66471;-51
2023/09/10 07:24:15;;;;;;;5.00;0.60;;;;;;;15.88;100.00;101002.66;104872;1262;71393;-49
2023/09/10 07:26:43;;;;;;;2.70;0.70;;;;;;;15.95;100.00;101002.33;104886;1262;60368;-50
2023/09/10 07:29:15;;;;;;;0.70;0.50;;;;;;;16.03;100.00;101003.51;105020;1261;60427;-51
2023/09/10 07:31:43;;;;;;;3.40;0.60;;;;;;;16.15;100.00;100998.93;104802;1261;73937;-49
2023/09/10 07:34:11;;;;;;;1.40;0.80;;;;;;;16.25;100.00;101000.17;106366;1260;66901;-50
2023/09/10 07:36:38;;;;;;;2.80;0.50;;;;;;;16.36;100.00;101000.35;104707;1260;71406;-49
2023/09/10 07:39:06;;;;;;;1.80;0.60;;;;;;;16.46;100.00;101002.33;104760;1260;61169;-50
2023/09/10 07:41:33;;;;;;;1.90;0.70;;;;;;;16.53;100.00;100999.08;104887;1260;60709;-51
2023/09/10 07:44:02;;;;;;;1.70;0.80;;;;;;;16.57;100.00;101001.05;104656;1257;71548;-51
2023/09/10 07:46:30;;;;;;;3.40;1.10;;;;;;;16.61;100.00;100998.66;105089;1262;66834;-52
2023/09/10 07:48:57;;;;;;;1.50;0.60;;;;;;;16.69;100.00;100999.15;104879;1255;71411;-48
2023/09/10 07:51:24;;;;;;;3.00;0.50;;;;;;;16.77;100.00;100996.02;104703;1260;60473;-53
2023/09/10 07:53:52;;;;;;;2.60;0.50;;;;;;;16.84;100.00;100992.55;104554;1256;60462;-52
2023/09/10 07:56:19;;;;;;;2.00;0.50;;;;;;;16.92;100.00;100993.36;104860;1258;72862;-50
2023/09/10 07:58:46;;;;;;;0.90;0.40;;;;;;;16.97;100.00;100988.36;104847;1260;65632;-50
2023/09/10 08:01:14;;;;;;;1.00;0.50;;;;;;;17.01;100.00;100986.20;104705;1258;74710;-53
2023/09/10 08:03:42;;;;;;;0.70;0.40;;;;;;;17.04;100.00;100984.52;104564;1261;60610;-53
2023/09/10 08:06:10;;;;;;;3.60;0.50;;;;;;;17.09;100.00;100983.69;104698;1261;60433;-50
2023/09/10 08:08:38;;;;;;;1.40;0.50;;;;;;;17.14;100.00;100983.24;104710;1259;74294;-51
2023/09/10 08:11:06;;;;;;;0.90;0.40;;;;;;;17.20;100.00;100983.10;104768;1260;67323;-53
2023/09/10 08:13:33;;;;;;;2.60;0.60;;;;;;;17.25;100.00;100982.11;104767;1258;71465;-51
2023/09/10 08:16:00;;;;;;;1.00;0.40;;;;;;;17.26;100.00;100979.48;104956;1257;60506;-52
2023/09/10 08:18:28;;;;;;;1.50;0.40;;;;;;;17.29;100.00;100978.77;104793;1262;60823;-49
2023/09/10 08:20:55;;;;;;;0.70;0.40;;;;;;;17.31;100.00;100974.48;104984;1257;74263;-52
2023/09/10 08:23:23;;;;;;;1.10;0.60;;;;;;;17.34;100.00;100972.30;104898;1261;68596;-50
2023/09/10 08:25:52;;;;;;;1.10;0.40;;;;;;;17.37;100.00;100967.05;104829;1258;71466;-50
2023/09/10 08:28:19;;;;;;;2.90;0.40;;;;;;;17.39;100.00;100967.11;104838;1260;60558;-50
2023/09/10 08:30:47;;;;;;;1.00;0.40;;;;;;;17.46;100.00;100970.37;104733;1262;60463;-50
2023/09/10 08:33:14;;;;;;;1.40;0.50;;;;;;;17.54;100.00;100967.56;105248;1257;72572;-50
2023/09/10 08:35:46;;;;;;;0.60;0.50;;;;;;;17.64;100.00;100970.24;104785;1258;65070;-52
2023/09/10 08:38:14;;;;;;;1.80;0.40;;;;;;;17.73;100.00;100967.36;105079;1258;73059;-50
2023/09/10 08:40:59;;;;;;;1.50;0.30;;;;;;;17.81;100.00;100965.80;104883;1257;61890;-52
2023/09/10 08:43:39;;;;;;;;;;;;;;;17.89;100.00;100971.11;104481;1257;60681;-51
2023/09/10 08:46:10;;;;;;;0.40;0.30;;;;;;;17.92;100.00;100968.06;105086;1260;72496;-52
2023/09/10 08:48:40;;;;;;;0.80;0.40;;;;;;;17.89;100.00;100972.04;104485;1263;66841;-52
2023/09/10 08:51:11;;;;;;;2.40;0.30;;;;;;;17.90;100.00;100968.16;104878;1260;72651;-52
2023/09/10 08:53:39;;;;;;;1.10;0.40;;;;;;;17.95;100.00;100969.50;104290;1263;135217;-52
2023/09/10 08:57:27;;;;;;;2.30;0.40;;;;;;;18.05;100.00;100976.54;101776;1292;601643;-51
2023/09/10 08:59:54;;;;;;;1.20;0.30;;;;;;;18.13;100.00;100969.30;103963;1269;61160;-51
2023/09/10 09:02:21;;;;;;;1.70;0.50;;;;;;;18.23;100.00;100969.45;103990;1265;59691;-50
2023/09/10 09:04:49;;;;;;;1.00;0.40;;;;;;;18.34;100.00;100966.23;104698;1269;72669;-51
2023/09/10 09:07:19;;;;;;;0.80;0.40;;;;;;;18.45;100.00;100967.92;104855;1265;67415;-52
2023/09/10 09:09:49;;;;;;;0.60;0.30;;;;;;;18.51;100.00;100971.70;104415;1265;71082;-53
2023/09/10 09:12:17;;;;;;;0.80;0.30;;;;;;;18.46;100.00;100966.95;108239;1263;145652;-51
2023/09/10 09:14:46;;;;;;;0.40;0.30;;;;;;;18.37;100.00;100968.05;106067;1257;62444;-51
2023/09/10 09:17:14;;;;;;;4.00;0.40;;;;;;;18.33;100.00;100965.91;105101;1251;72675;-51
2023/09/10 09:19:44;;;;;;;0.60;0.30;;;;;;;18.33;100.00;100960.31;104853;1251;67558;-51
2023/09/10 09:22:14;;;;;;;0.60;0.30;;;;;;;18.34;100.00;100956.25;105004;1253;71270;-52
2023/09/10 09:24:41;;;;;;;0.40;0.30;;;;;;;18.36;100.00;100954.45;105777;1253;59727;-51
2023/09/10 09:27:10;;;;;;;1.40;0.40;;;;;;;18.38;100.00;100955.04;105052;1253;60275;-50
2023/09/10 09:29:38;;;;;;;0.40;0.30;;;;;;;18.38;100.00;100955.78;109220;1251;71668;-50
2023/09/10 09:32:05;;;;;;;0.40;0.30;;;;;;;18.35;100.00;100951.79;109130;1251;66732;-51
2023/09/10 09:34:32;;;;;;;1.50;0.50;;;;;;;18.33;100.00;100948.66;109076;1251;71524;-51
2023/09/10 09:37:00;;;;;;;0.30;0.30;;;;;;;18.32;100.00;100944.00;109242;1250;58779;-50
2023/09/10 09:39:29;;;;;;;0.60;0.40;;;;;;;18.33;100.00;100942.27;105369;1259;60110;-50
2023/09/10 09:41:57;;;;;;;2.00;0.30;;;;;;;18.37;100.00;100941.89;105150;1254;72956;-52
2023/09/10 09:44:24;;;;;;;1.30;0.40;;;;;;;18.41;100.00;100940.90;105154;1257;65505;-51
2023/09/10 09:46:55;;;;;;;0.60;0.40;;;;;;;18.44;100.00;100938.20;104739;1256;71440;-51
2023/09/10 09:49:24;;;;;;;1.40;0.50;;;;;;;18.48;100.00;100942.23;104871;1253;60251;-50
2023/09/10 09:51:52;;;;;;;0.50;0.40;;;;;;;18.52;100.00;100937.09;104999;1257;59640;-51
2023/09/10 09:54:19;;;;;;;0.60;0.60;;;;;;;18.59;100.00;100934.34;104758;1253;72077;-52
2023/09/10 09:56:47;;;;;;;0.40;0.30;;;;;;;18.65;100.00;100933.77;108844;1253;65509;-48
2023/09/10 09:59:15;;;;;;;0.30;0.30;;;;;;;18.69;100.00;100933.90;108994;1253;72660;-51
2023/09/10 10:01:44;;;;;;;0.60;0.30;;;;;;;18.72;100.00;100931.32;109031;1253;59310;-49
2023/09/10 10:04:15;;;;;;;0.70;0.30;;;;;;;18.75;100.00;100927.86;109233;1252;58781;-51
2023/09/10 10:06:43;;;;;;;0.70;0.40;;;;;;;18.81;100.00;100923.98;109034;1253;71578;-51
2023/09/10 10:09:15;;;;;;;0.70;0.40;;;;;;;18.86;100.00;100922.76;107241;1257;66824;-52
2023/09/10 10:11:43;;;;;;;1.20;0.40;;;;;;;18.89;100.00;100920.02;105700;1254;72274;-52
2023/09/10 10:14:10;;;;;;;1.00;0.40;;;;;;;18.91;100.00;100918.83;105001;1256;59698;-51
2023/09/10 10:16:38;;;;;;;2.50;0.40;;;;;;;18.94;100.00;100915.21;104917;1253;59816;-51
2023/09/10 10:19:05;;;;;;;1.10;0.50;;;;;;;18.96;100.00;100913.97;104944;1251;73081;-52
2023/09/10 10:21:32;;;;;;;0.40;0.40;;;;;;;18.97;100.00;100909.02;105129;1257;68824;-53
2023/09/10 10:24:00;;;;;;;1.20;0.50;;;;;;;18.92;100.00;100908.41;104955;1256;73404;-49
2023/09/10 10:26:27;;;;;;;0.90;0.40;;;;;;;18.84;100.00;100908.14;104984;1253;61323;-49
2023/09/10 10:28:55;;;;;;;1.40;0.40;;;;;;;18.83;100.00;100911.69;104912;1259;59558;-50
2023/09/10 10:31:28;;;;;;;1.60;0.40;;;;;;;18.81;100.00;100911.25;105049;1256;72987;-52
2023/09/10 10:34:03;;;;;;;1.70;0.40;;;;;;;18.80;100.00;100910.04;104993;1254;67242;-51
2023/09/10 10:36:54;;;;;;;0.80;0.40;;;;;;;18.85;100.00;100906.31;105480;1254;71387;-52
2023/09/10 10:39:26;;;;;;;1.40;0.40;;;;;;;18.93;100.00;100902.33;104992;1253;59806;-51
2023/09/10 10:41:53;;;;;;;0.50;0.40;;;;;;;19.00;100.00;100901.32;104922;1253;62446;-50
2023/09/10 10:44:41;;;;;;;0.60;0.40;;;;;;;19.07;100.00;100896.14;105071;1254;73008;-51
2023/09/10 10:47:18;;;;;;;1.50;0.40;;;;;;;19.13;100.00;100892.63;105065;1254;65638;-52
2023/09/10 10:49:55;;;;;;;2.40;0.40;;;;;;;19.21;100.00;100892.48;105081;1253;73046;-52
2023/09/10 10:52:26;;;;;;;3.50;0.70;;;;;;;19.27;100.00;100894.82;104842;1254;59752;-52
2023/09/10 10:54:53;;;;;;;0.40;0.30;;;;;;;19.27;100.00;100897.15;105080;1258;60459;-52
2023/09/10 10:57:20;;;;;;;1.70;0.40;;;;;;;19.26;100.00;100893.59;104880;1254;72861;-51
2023/09/10 10:59:48;;;;;;;0.50;0.40;;;;;;;19.29;100.00;100887.56;104820;1256;66752;-52
2023/09/10 11:02:23;;;;;;;1.10;0.40;;;;;;;19.36;100.00;100884.23;104754;1254;71453;-50
2023/09/10 11:04:54;;;;;;;2.20;0.30;;;;;;;19.41;100.00;100876.02;105919;1257;63543;-51
2023/09/10 11:07:26;;;;;;;1.10;0.40;;;;;;;19.43;100.00;100869.90;105217;1253;60944;-53
2023/09/10 11:09:55;;;;;;;0.80;0.30;;;;;;;19.44;100.00;100870.73;104998;1253;72947;-50
2023/09/10 11:12:22;;;;;;;1.80;0.40;;;;;;;19.44;100.00;100871.13;104997;1253;69790;-51
2023/09/10 11:14:59;;;;;;;0.30;0.20;;;;;;;19.43;100.00;100867.00;104821;1259;72650;-50
2023/09/10 11:17:32;;;;;;;2.00;0.30;;;;;;;19.43;100.00;100865.33;104902;1259;59989;-52
2023/09/10 11:20:00;;;;;;;0.50;0.40;;;;;;;19.46;100.00;100865.14;105219;1254;59743;-50